Post, Oregon
Current Conditions -  °F | °C
As of 1:15 PM on Saturday 22 Nov 2014 (Local Time) from KS39 Reporting Station
Scattered Clouds Scattered Clouds  
Wind Chill: 34°   Ceiling: Unl
Heat Index: 43°   Visibility: 10mi
Dew Point: 32°   Wind: 21mph
Humidity: 66%   Direction: 270°W
Pressure: 29.91"   Gusts: 31mph
Location:  44.16°N, 120.49°W
Report Text: KS39 222115Z AUTO 27018G27KT 10SM FEW029 SCT034 06/00 A2991 RMK AO2
Loading
Personal Weather Stations






























Interactive Weather Map New forecast layout! Learn more

10-Day Weather Forecast

Advertisements
Track Severe Weather on mobile